Aérodrome :
LOGIN :

S'inscrire | Disclaimer

   EN    FR    IT 

 










Légende :    VFR   VFR Marginal   IFR   IFR Intensif   IFR Très Intensif
Visi : 
Plafond : 
>= 8 km
>= 3000ft
5 à 8 km
1000 à 3000 ft
1500m à 5 km
500 à 1000 ft
800 à 1500m
200 à 500 ft
< 800m
< 200 ft
Symboles :   Orages  Brouillard  Fortes neiges  Fortes précipitations  Vent > 20 kt
SIGMETs :   Divers  Orages  Givrage  Turbulence  Onde Orograph.  Cendres Volcan.







- Altitude de l'aérodrome : 209 ft
- Code IATA : CLY
- Voir les cartes d'approche


LFKC - Calvi

DERNIER METAR :
  • 181900Z AUTO 20005KT CAVOK 07/05 Q1023 NOSIG

METARs EXPIRÉS :
  • 181830Z AUTO 21006KT CAVOK 07/05 Q1024 NOSIG
  • 181800Z AUTO 17007KT CAVOK 08/06 Q1023 NOSIG
  • 181730Z AUTO 18004KT CAVOK 09/07 Q1023 NOSIG
  • 181700Z AUTO 21004KT CAVOK 09/06 Q1023 NOSIG
  • 181630Z AUTO VRB02KT CAVOK 11/08 Q1023 NOSIG

TAF TAF LFKC
Valide du 18 à 15h jusqu'au 19 à 15h UTC


181400Z 1815/1915 34006KT CAVOK TX15/1913Z TN03/1904Z
BECMG 1818/1821 18004KT
BECMG 1908/1911 34006KT
ATIS : +33 4 95 65 82 49
Pas de NOTAMs connus pour ce terrain.



MET'MAP, la Météo Aéronautique d'un coup d'oeil ! - Copyright ORBIFLY Décembre 2007 - Disclaimer

ORBIFLY MET'MAP TEAM :

Programmation & Développement : Alexandra Zaïnal
Conception & Développement : Baudouin d'Aumeries
Co-Programmation & Développement : Marc-Olivier Méhu
Soutien technique & logistique : Manuel Goepfert

Contact : metmap@orbifly.com




SOURCES & CREDITS :

   NOAA